Time;durP1;ratioP1;P1;durP2;ratioP2;P2;SDS_P1;SDS_P2;PMS_P1;PMS_P2;Temp;Humidity;BMP_temperature;BMP_pressure;BME280_temperature;BME280_humidity;BME280_pressure;Samples;Min_cycle;Max_cycle;Signal;HPM_P1;HPM_P2
2023/02/13 00:00:17;;;;;;;36.70;20.27;;;;;;;;;;5032302;28;20585;-67
2023/02/13 00:02:46;;;;;;;44.97;22.58;;;;;;;;;;5042697;28;20644;-67
2023/02/13 00:05:16;;;;;;;43.03;21.85;;;;;;;;;;5036748;28;20726;-68
2023/02/13 00:07:44;;;;;;;42.22;21.25;;;;;;;;;;5039478;28;20202;-69
2023/02/13 00:10:12;;;;;;;45.58;21.08;;;;;;;;;;5043665;28;20205;-70
2023/02/13 00:12:40;;;;;;;39.08;20.92;;;;;;;;;;5044148;28;20196;-72
2023/02/13 00:15:09;;;;;;;40.05;21.92;;;;;;;;;;5046037;28;20196;-67
2023/02/13 00:17:37;;;;;;;40.33;22.02;;;;;;;;;;5033278;28;20204;-67
2023/02/13 00:20:06;;;;;;;37.60;20.92;;;;;;;;;;5039225;28;20234;-67
2023/02/13 00:22:37;;;;;;;36.92;20.88;;;;;;;;;;5055077;28;20606;-67
2023/02/13 00:25:08;;;;;;;41.55;22.17;;;;;;;;;;5056768;28;20196;-67
2023/02/13 00:27:36;;;;;;;35.88;20.58;;;;;;;;;;5056109;28;20204;-67
2023/02/13 00:30:05;;;;;;;39.45;19.75;;;;;;;;;;5056179;28;20563;-67
2023/02/13 00:32:33;;;;;;;35.55;20.08;;;;;;;;;;5047572;28;20197;-66
2023/02/13 00:35:01;;;;;;;42.80;21.30;;;;;;;;;;5036472;28;20567;-66
2023/02/13 00:37:31;;;;;;;42.13;20.05;;;;;;;;;;5035808;28;20245;-67
2023/02/13 00:40:01;;;;;;;42.33;21.38;;;;;;;;;;5045843;28;20706;-68
2023/02/13 00:42:29;;;;;;;40.80;22.13;;;;;;;;;;5036702;28;20202;-68
2023/02/13 00:44:57;;;;;;;37.13;22.05;;;;;;;;;;5048991;28;20559;-69
2023/02/13 00:47:25;;;;;;;41.33;21.17;;;;;;;;;;5035631;28;20213;-68
2023/02/13 00:49:53;;;;;;;42.95;19.80;;;;;;;;;;5046871;28;20203;-68
2023/02/13 00:52:21;;;;;;;35.40;19.17;;;;;;;;;;5056279;28;20693;-69
2023/02/13 00:54:51;;;;;;;37.13;19.77;;;;;;;;;;5054933;28;20586;-68
2023/02/13 00:57:21;;;;;;;38.35;19.92;;;;;;;;;;5053841;28;20286;-69
2023/02/13 00:59:49;;;;;;;40.95;21.10;;;;;;;;;;5056333;28;20250;-68
2023/02/13 01:02:17;;;;;;;40.90;22.92;;;;;;;;;;5055455;28;20196;-68
2023/02/13 01:04:45;;;;;;;33.33;21.00;;;;;;;;;;5055194;28;20196;-68
2023/02/13 01:07:13;;;;;;;38.15;22.75;;;;;;;;;;5055938;28;20211;-69
2023/02/13 01:09:44;;;;;;;42.50;21.08;;;;;;;;;;5055362;28;20192;-67
2023/02/13 01:12:13;;;;;;;41.63;22.05;;;;;;;;;;5055940;28;20203;-68
2023/02/13 01:14:44;;;;;;;37.25;21.35;;;;;;;;;;5054909;28;20548;-68
2023/02/13 01:17:12;;;;;;;46.72;20.55;;;;;;;;;;5054415;28;20566;-68
2023/02/13 01:19:41;;;;;;;43.00;22.13;;;;;;;;;;5054907;28;20223;-68
2023/02/13 01:22:09;;;;;;;41.35;20.85;;;;;;;;;;5054377;28;20555;-69
2023/02/13 01:24:38;;;;;;;48.38;22.73;;;;;;;;;;5055740;28;20572;-68
2023/02/13 01:27:06;;;;;;;45.13;22.35;;;;;;;;;;5055234;28;20214;-68
2023/02/13 01:29:34;;;;;;;42.78;23.65;;;;;;;;;;5055472;28;20205;-68
2023/02/13 01:32:05;;;;;;;39.83;21.30;;;;;;;;;;5054553;28;20207;-68
2023/02/13 01:34:33;;;;;;;48.63;23.80;;;;;;;;;;5054312;28;20563;-68
2023/02/13 01:37:01;;;;;;;44.95;21.80;;;;;;;;;;5055152;28;20236;-69
2023/02/13 01:39:29;;;;;;;53.45;24.65;;;;;;;;;;5036072;28;20205;-68
2023/02/13 01:41:57;;;;;;;48.45;23.23;;;;;;;;;;5035107;28;20241;-68
2023/02/13 01:44:46;;;;;;;54.75;25.38;;;;;;;;;;5035623;28;20572;-68
2023/02/13 01:47:19;;;;;;;54.67;24.23;;;;;;;;;;5033946;28;20193;-68
2023/02/13 01:49:48;;;;;;;44.28;23.30;;;;;;;;;;5035493;28;20188;-68
2023/02/13 01:52:17;;;;;;;46.63;22.15;;;;;;;;;;5043781;28;20558;-68
2023/02/13 01:54:46;;;;;;;50.55;24.63;;;;;;;;;;5055694;28;20579;-68
2023/02/13 01:57:17;;;;;;;45.83;22.98;;;;;;;;;;5053910;28;20208;-68
2023/02/13 01:59:48;;;;;;;50.78;24.35;;;;;;;;;;5054102;28;20702;-68
2023/02/13 02:02:18;;;;;;;46.78;23.58;;;;;;;;;;5039587;28;20193;-68
2023/02/13 02:04:47;;;;;;;54.13;24.45;;;;;;;;;;5054716;28;20204;-68
2023/02/13 02:07:20;;;;;;;52.58;24.83;;;;;;;;;;5044328;28;20189;-67
2023/02/13 02:09:50;;;;;;;53.90;25.83;;;;;;;;;;5042828;28;20189;-68
2023/02/13 02:12:22;;;;;;;49.30;24.58;;;;;;;;;;5049554;28;20197;-68
2023/02/13 02:14:51;;;;;;;47.15;25.02;;;;;;;;;;5042952;28;20204;-68
2023/02/13 02:17:25;;;;;;;54.80;25.10;;;;;;;;;;5035093;28;20197;-67
2023/02/13 02:19:58;;;;;;;49.08;24.35;;;;;;;;;;5035334;28;20197;-67
2023/02/13 02:22:43;;;;;;;49.00;27.10;;;;;;;;;;5034357;28;20228;-68
2023/02/13 02:25:32;;;;;;;54.08;26.88;;;;;;;;;;5035427;28;20201;-68
2023/02/13 02:28:11;;;;;;;45.83;24.45;;;;;;;;;;5010030;28;20202;-68
2023/02/13 02:30:50;;;;;;;44.85;24.45;;;;;;;;;;5043612;28;20185;-67
2023/02/13 02:33:26;;;;;;;53.95;24.92;;;;;;;;;;5053249;28;20632;-67
2023/02/13 02:36:00;;;;;;;60.55;26.70;;;;;;;;;;5052888;28;20214;-67
2023/02/13 02:38:37;;;;;;;49.70;24.05;;;;;;;;;;5053149;28;20203;-67
2023/02/13 02:41:07;;;;;;;47.45;23.40;;;;;;;;;;5053918;28;20686;-67
2023/02/13 02:43:46;;;;;;;53.88;25.95;;;;;;;;;;5052475;28;20209;-68
2023/02/13 02:46:17;;;;;;;49.67;24.95;;;;;;;;;;5053146;28;20195;-69
2023/02/13 02:51:41;;;;;;;57.67;25.98;;;;;;;;;;5054111;28;20629;-68
2023/02/13 02:56:58;;;;;;;53.08;24.55;;;;;;;;;;5049483;28;20212;-67
2023/02/13 03:07:50;;;;;;;46.92;21.92;;;;;;;;;;5053733;28;20188;-67
2023/02/13 03:13:21;;;;;;;59.15;27.27;;;;;;;;;;5053320;28;20230;-68
2023/02/13 03:24:20;;;;;;;51.20;26.50;;;;;;;;;;5052615;28;20653;-67
2023/02/13 03:26:54;;;;;;;57.78;26.08;;;;;;;;;;5039691;28;20207;-69
2023/02/13 03:32:21;;;;;;;58.47;29.45;;;;;;;;;;5033626;28;20212;-67
2023/02/13 03:37:54;;;;;;;59.60;27.67;;;;;;;;;;5049050;28;20224;-67
2023/02/13 03:40:24;;;;;;;68.68;28.15;;;;;;;;;;5052812;28;20358;-68
2023/02/13 03:42:54;;;;;;;64.93;27.52;;;;;;;;;;5052913;28;20600;-68
2023/02/13 03:50:04;;;;;;;57.75;27.60;;;;;;;;;;5040377;28;20193;-67
2023/02/13 03:50:59;;;;;;;53.90;26.63;;;;;;;;;;5052220;28;20563;-68
2023/02/13 03:53:29;;;;;;;67.43;27.48;;;;;;;;;;5052620;28;20201;-68
2023/02/13 04:01:34;;;;;;;65.32;28.85;;;;;;;;;;5050923;28;20227;-68
2023/02/13 04:04:06;;;;;;;69.82;28.65;;;;;;;;;;5034778;28;20211;-67
2023/02/13 04:06:36;;;;;;;64.57;28.48;;;;;;;;;;5038040;28;20245;-68
2023/02/13 04:09:06;;;;;;;59.83;26.52;;;;;;;;;;5050177;28;20201;-67
2023/02/13 04:11:36;;;;;;;68.13;27.90;;;;;;;;;;5051319;28;20643;-67
2023/02/13 04:14:07;;;;;;;68.57;29.35;;;;;;;;;;5050129;28;20196;-67
2023/02/13 04:16:37;;;;;;;65.40;29.80;;;;;;;;;;5037736;28;20192;-67
2023/02/13 04:19:05;;;;;;;58.00;28.27;;;;;;;;;;5033186;28;20201;-68
2023/02/13 04:21:34;;;;;;;61.38;28.85;;;;;;;;;;5032915;28;20690;-67
2023/02/13 04:24:02;;;;;;;57.97;28.83;;;;;;;;;;5031507;28;20584;-67
2023/02/13 04:26:36;;;;;;;62.08;27.98;;;;;;;;;;5040423;28;20200;-68
2023/02/13 04:29:04;;;;;;;67.72;28.58;;;;;;;;;;5034404;28;20193;-67
2023/02/13 04:31:32;;;;;;;57.65;27.20;;;;;;;;;;5036600;28;20197;-67
2023/02/13 04:34:00;;;;;;;64.03;27.42;;;;;;;;;;5051827;28;20207;-68
2023/02/13 04:36:28;;;;;;;63.20;27.65;;;;;;;;;;5051761;28;20236;-68
2023/02/13 04:38:56;;;;;;;59.30;25.20;;;;;;;;;;5051954;28;20205;-68
2023/02/13 04:41:24;;;;;;;53.50;24.23;;;;;;;;;;5051783;28;20220;-68
2023/02/13 04:43:54;;;;;;;57.90;25.17;;;;;;;;;;5051373;28;20196;-67
2023/02/13 04:46:22;;;;;;;66.40;27.42;;;;;;;;;;5052174;28;20200;-67
2023/02/13 04:48:50;;;;;;;65.85;27.88;;;;;;;;;;5051554;28;20215;-68
2023/02/13 04:51:18;;;;;;;58.30;26.33;;;;;;;;;;5052052;28;20205;-67
2023/02/13 04:53:47;;;;;;;54.60;26.83;;;;;;;;;;5051874;28;20207;-67
2023/02/13 04:56:15;;;;;;;54.65;27.70;;;;;;;;;;5052639;28;20205;-68
2023/02/13 04:58:43;;;;;;;60.15;27.38;;;;;;;;;;5046945;28;20208;-68
2023/02/13 05:01:16;;;;;;;56.33;26.20;;;;;;;;;;5051530;28;20227;-68
2023/02/13 05:03:44;;;;;;;59.75;27.52;;;;;;;;;;5050567;28;20196;-67
2023/02/13 05:06:12;;;;;;;56.70;26.15;;;;;;;;;;5051710;28;20222;-68
2023/02/13 05:08:41;;;;;;;59.45;27.23;;;;;;;;;;5046863;28;20211;-68
2023/02/13 05:11:09;;;;;;;60.83;30.92;;;;;;;;;;5054760;28;20215;-67
2023/02/13 05:13:37;;;;;;;69.35;30.67;;;;;;;;;;5054940;28;20560;-68
2023/02/13 05:16:05;;;;;;;58.10;28.10;;;;;;;;;;5054797;28;20698;-68
2023/02/13 05:18:35;;;;;;;57.25;27.63;;;;;;;;;;5054920;28;20212;-68
2023/02/13 05:23:49;;;;;;;64.82;29.60;;;;;;;;;;5055053;28;20698;-67
2023/02/13 05:26:17;;;;;;;54.28;26.45;;;;;;;;;;5054951;28;20219;-68
2023/02/13 05:31:42;;;;;;;66.45;28.27;;;;;;;;;;4993558;28;20317;-67
2023/02/13 05:34:12;;;;;;;65.63;29.45;;;;;;;;;;5040163;28;20628;-67
2023/02/13 05:36:40;;;;;;;66.45;29.23;;;;;;;;;;5053059;28;20226;-67
2023/02/13 05:39:08;;;;;;;67.32;27.08;;;;;;;;;;5044004;28;20200;-67
2023/02/13 05:41:36;;;;;;;52.05;27.15;;;;;;;;;;5054797;28;20225;-67
2023/02/13 05:44:05;;;;;;;66.80;32.05;;;;;;;;;;5037837;28;20605;-67
2023/02/13 05:46:33;;;;;;;61.75;29.15;;;;;;;;;;5034886;28;20589;-68
2023/02/13 05:49:02;;;;;;;53.47;26.38;;;;;;;;;;5035027;28;20547;-67
2023/02/13 05:51:31;;;;;;;59.25;27.92;;;;;;;;;;5045900;28;20200;-67
2023/02/13 05:53:59;;;;;;;63.40;28.42;;;;;;;;;;5054825;28;20208;-68
2023/02/13 05:56:28;;;;;;;59.05;26.15;;;;;;;;;;5036277;28;20566;-68
2023/02/13 05:58:56;;;;;;;52.22;26.23;;;;;;;;;;5034499;28;20209;-67
2023/02/13 06:01:25;;;;;;;57.22;26.75;;;;;;;;;;5049489;28;20593;-67
2023/02/13 06:03:53;;;;;;;52.70;24.60;;;;;;;;;;5038915;28;20621;-68
2023/02/13 06:06:22;;;;;;;61.35;25.95;;;;;;;;;;5038559;28;20215;-67
2023/02/13 06:08:51;;;;;;;57.72;27.00;;;;;;;;;;5048041;28;20193;-68
2023/02/13 06:11:20;;;;;;;62.45;27.45;;;;;;;;;;5037957;28;20204;-67
2023/02/13 06:13:48;;;;;;;57.63;27.30;;;;;;;;;;5044277;28;20568;-67
2023/02/13 06:16:16;;;;;;;69.78;30.83;;;;;;;;;;5042333;28;20551;-67
2023/02/13 06:18:44;;;;;;;53.90;27.90;;;;;;;;;;5043842;28;20201;-67
2023/02/13 06:21:12;;;;;;;58.35;26.73;;;;;;;;;;5042804;28;20215;-67
2023/02/13 06:23:41;;;;;;;54.00;27.02;;;;;;;;;;5042817;28;20712;-67
2023/02/13 06:26:10;;;;;;;60.25;27.52;;;;;;;;;;5040022;28;20196;-67
2023/02/13 06:28:38;;;;;;;60.00;28.38;;;;;;;;;;5034671;28;20208;-67
2023/02/13 06:31:07;;;;;;;65.20;28.08;;;;;;;;;;5038222;28;20197;-67
2023/02/13 06:33:35;;;;;;;74.45;29.60;;;;;;;;;;5039913;28;20197;-67
2023/02/13 06:36:03;;;;;;;64.88;26.35;;;;;;;;;;5048526;28;20229;-67
2023/02/13 06:38:32;;;;;;;64.53;27.52;;;;;;;;;;5033552;28;20204;-67
2023/02/13 06:41:01;;;;;;;63.05;27.45;;;;;;;;;;5050539;28;20205;-67
2023/02/13 06:43:30;;;;;;;64.50;25.60;;;;;;;;;;5038184;28;20219;-67
2023/02/13 06:45:58;;;;;;;59.90;26.38;;;;;;;;;;5039052;28;20202;-67
2023/02/13 06:48:26;;;;;;;69.70;34.65;;;;;;;;;;5032075;28;20750;-66
2023/02/13 06:50:55;;;;;;;73.90;31.27;;;;;;;;;;5049173;28;20200;-67
2023/02/13 06:53:24;;;;;;;63.55;29.02;;;;;;;;;;5044710;28;20657;-68
2023/02/13 06:55:53;;;;;;;61.25;28.58;;;;;;;;;;5031982;28;20211;-68
2023/02/13 06:58:21;;;;;;;59.08;26.50;;;;;;;;;;5032897;28;20672;-67
2023/02/13 07:00:51;;;;;;;62.25;28.20;;;;;;;;;;5033570;28;20216;-68
2023/02/13 07:03:19;;;;;;;70.43;28.73;;;;;;;;;;5032194;28;20526;-66
2023/02/13 07:05:50;;;;;;;59.90;27.00;;;;;;;;;;5032399;28;20210;-67
2023/02/13 07:08:19;;;;;;;59.10;26.40;;;;;;;;;;5033566;28;20668;-67
2023/02/13 07:10:47;;;;;;;58.10;26.65;;;;;;;;;;5050179;28;20211;-66
2023/02/13 07:13:15;;;;;;;59.10;25.33;;;;;;;;;;5052655;28;20200;-68
2023/02/13 07:15:45;;;;;;;66.22;26.80;;;;;;;;;;5046968;28;20209;-68
2023/02/13 07:18:14;;;;;;;68.60;28.00;;;;;;;;;;5052401;28;20205;-67
2023/02/13 07:20:42;;;;;;;65.55;27.58;;;;;;;;;;5051654;28;20205;-67
2023/02/13 07:23:11;;;;;;;72.93;28.23;;;;;;;;;;5052296;28;20225;-67
2023/02/13 07:25:39;;;;;;;73.60;26.95;;;;;;;;;;5045984;28;20204;-67
2023/02/13 07:28:07;;;;;;;73.68;26.73;;;;;;;;;;5050060;28;20950;-67
2023/02/13 07:30:36;;;;;;;103.38;27.60;;;;;;;;;;5040493;28;20262;-66
2023/02/13 07:33:05;;;;;;;75.50;27.25;;;;;;;;;;5050792;28;20192;-66
2023/02/13 07:35:35;;;;;;;93.93;24.00;;;;;;;;;;5052757;28;20209;-66
2023/02/13 07:38:03;;;;;;;57.60;26.35;;;;;;;;;;5035113;28;20213;-66
2023/02/13 07:40:31;;;;;;;90.32;27.73;;;;;;;;;;5032148;28;20205;-67
2023/02/13 07:43:01;;;;;;;65.38;26.00;;;;;;;;;;5032408;28;20221;-66
2023/02/13 07:45:29;;;;;;;82.68;25.63;;;;;;;;;;5035746;28;20207;-66
2023/02/13 07:47:58;;;;;;;62.90;26.17;;;;;;;;;;5051260;28;20204;-66
2023/02/13 07:50:26;;;;;;;80.53;24.77;;;;;;;;;;5047314;28;20210;-67
2023/02/13 07:52:56;;;;;;;90.50;26.50;;;;;;;;;;5031385;28;20205;-68
2023/02/13 07:55:25;;;;;;;92.75;25.75;;;;;;;;;;5032523;28;20659;-67
2023/02/13 07:57:53;;;;;;;70.65;24.30;;;;;;;;;;5049606;28;20204;-68
2023/02/13 08:00:22;;;;;;;72.93;23.58;;;;;;;;;;5045608;28;20207;-67
2023/02/13 08:02:50;;;;;;;79.60;25.05;;;;;;;;;;5038020;28;20223;-66
2023/02/13 08:05:18;;;;;;;70.15;22.73;;;;;;;;;;5050555;28;20215;-66
2023/02/13 08:07:47;;;;;;;73.13;25.08;;;;;;;;;;5035493;28;20204;-66
2023/02/13 08:13:02;;;;;;;75.50;24.15;;;;;;;;;;5032351;28;20190;-66
2023/02/13 08:15:30;;;;;;;65.10;24.60;;;;;;;;;;5034531;28;20192;-67
2023/02/13 08:17:59;;;;;;;59.75;21.10;;;;;;;;;;5040313;28;20266;-68
2023/02/13 08:20:27;;;;;;;69.75;24.52;;;;;;;;;;5048381;28;20205;-67
2023/02/13 08:22:55;;;;;;;83.13;30.25;;;;;;;;;;5045943;28;20219;-67
2023/02/13 08:25:25;;;;;;;116.97;27.15;;;;;;;;;;5036432;28;20211;-68
2023/02/13 08:27:53;;;;;;;88.55;25.15;;;;;;;;;;5043039;28;20207;-68
2023/02/13 08:30:21;;;;;;;77.75;33.45;;;;;;;;;;5042439;28;20198;-68
2023/02/13 08:32:49;;;;;;;102.32;25.55;;;;;;;;;;5043069;28;20204;-67
2023/02/13 08:35:17;;;;;;;77.00;27.77;;;;;;;;;;5046634;28;20678;-68
2023/02/13 08:37:46;;;;;;;86.55;25.15;;;;;;;;;;5041319;28;20241;-67
2023/02/13 08:40:14;;;;;;;95.85;26.70;;;;;;;;;;5031042;28;20209;-67
2023/02/13 08:42:44;;;;;;;60.40;25.02;;;;;;;;;;5033357;28;20250;-67
2023/02/13 08:45:12;;;;;;;91.10;23.65;;;;;;;;;;5037752;28;20208;-67
2023/02/13 08:47:40;;;;;;;64.75;23.92;;;;;;;;;;5037908;28;20197;-67
2023/02/13 08:50:09;;;;;;;79.03;23.42;;;;;;;;;;5039112;28;20200;-67
2023/02/13 08:52:37;;;;;;;69.43;23.55;;;;;;;;;;5048929;28;20207;-67
2023/02/13 08:55:05;;;;;;;57.05;22.40;;;;;;;;;;5054266;28;20213;-68
2023/02/13 08:57:33;;;;;;;50.22;24.52;;;;;;;;;;5047878;28;20207;-69
2023/02/13 09:00:03;;;;;;;46.35;21.42;;;;;;;;;;5037906;28;20211;-68
2023/02/13 09:02:31;;;;;;;48.28;21.25;;;;;;;;;;5034907;28;20208;-68
2023/02/13 09:04:59;;;;;;;45.55;22.42;;;;;;;;;;5051181;28;20710;-68
2023/02/13 09:07:28;;;;;;;46.00;23.63;;;;;;;;;;5049293;28;20203;-68
2023/02/13 09:09:56;;;;;;;59.03;26.40;;;;;;;;;;5043087;28;20212;-68
2023/02/13 09:12:24;;;;;;;58.53;25.10;;;;;;;;;;5054775;28;20675;-69
2023/02/13 09:14:52;;;;;;;50.90;25.23;;;;;;;;;;5049899;28;20197;-69
2023/02/13 09:17:22;;;;;;;55.55;22.90;;;;;;;;;;5035256;28;20209;-68
2023/02/13 09:19:50;;;;;;;44.33;21.52;;;;;;;;;;5034217;28;20209;-68
2023/02/13 09:22:18;;;;;;;46.10;25.63;;;;;;;;;;5034900;28;20211;-69
2023/02/13 09:24:46;;;;;;;41.95;22.40;;;;;;;;;;5042418;28;20216;-68
2023/02/13 09:27:14;;;;;;;48.78;22.92;;;;;;;;;;5054843;28;20200;-69
2023/02/13 09:29:42;;;;;;;43.75;22.98;;;;;;;;;;5041303;28;20201;-68
2023/02/13 09:32:11;;;;;;;46.15;23.58;;;;;;;;;;5035207;28;20211;-68
2023/02/13 09:34:40;;;;;;;50.03;27.08;;;;;;;;;;5038805;28;20194;-69
2023/02/13 09:37:08;;;;;;;43.33;22.70;;;;;;;;;;5037861;28;20235;-68
2023/02/13 09:39:36;;;;;;;44.55;25.13;;;;;;;;;;5054533;28;20565;-69
2023/02/13 09:42:07;;;;;;;41.33;22.35;;;;;;;;;;5048672;28;20201;-69
2023/02/13 09:44:40;;;;;;;35.83;20.70;;;;;;;;;;5046579;28;20277;-69
2023/02/13 09:47:13;;;;;;;38.58;22.30;;;;;;;;;;5038464;28;20223;-69
2023/02/13 09:49:45;;;;;;;38.08;22.35;;;;;;;;;;5034432;28;20202;-69
2023/02/13 09:52:13;;;;;;;40.55;22.67;;;;;;;;;;5033904;28;20231;-69
2023/02/13 09:54:42;;;;;;;35.75;20.55;;;;;;;;;;5046815;28;20218;-69
2023/02/13 09:57:16;;;;;;;45.10;23.58;;;;;;;;;;5050462;28;20219;-69
2023/02/13 09:59:50;;;;;;;35.78;21.02;;;;;;;;;;5034046;28;20196;-70
2023/02/13 10:02:28;;;;;;;31.92;20.67;;;;;;;;;;5042759;28;20184;-69
2023/02/13 10:05:03;;;;;;;28.60;19.00;;;;;;;;;;5038003;28;20209;-69
2023/02/13 10:07:38;;;;;;;31.73;20.00;;;;;;;;;;5031996;28;20193;-69
2023/02/13 10:10:12;;;;;;;37.58;22.80;;;;;;;;;;5050677;28;20193;-69
2023/02/13 10:12:58;;;;;;;32.33;20.40;;;;;;;;;;5040492;28;20210;-68
2023/02/13 10:15:29;;;;;;;35.78;20.70;;;;;;;;;;5036385;28;20247;-69
2023/02/13 10:17:59;;;;;;;37.88;21.67;;;;;;;;;;5034012;28;20196;-69
2023/02/13 10:20:31;;;;;;;34.10;20.38;;;;;;;;;;5053645;28;20656;-69
2023/02/13 10:23:01;;;;;;;33.17;20.48;;;;;;;;;;5051308;28;20285;-68
2023/02/13 10:25:32;;;;;;;34.95;21.13;;;;;;;;;;5045680;28;20279;-68
2023/02/13 10:28:01;;;;;;;35.70;20.77;;;;;;;;;;5032674;28;20211;-69
2023/02/13 10:30:32;;;;;;;36.47;21.10;;;;;;;;;;5046174;28;20694;-68
2023/02/13 10:33:20;;;;;;;31.55;20.40;;;;;;;;;;5042966;28;20200;-67
2023/02/13 10:35:52;;;;;;;29.33;19.65;;;;;;;;;;5034687;28;20190;-67
2023/02/13 10:38:22;;;;;;;35.30;18.45;;;;;;;;;;5043393;28;20272;-67
2023/02/13 10:40:57;;;;;;;29.80;19.00;;;;;;;;;;5032900;28;20209;-68
2023/02/13 10:43:28;;;;;;;28.33;18.40;;;;;;;;;;5045379;28;20670;-68
2023/02/13 10:46:01;;;;;;;30.65;18.77;;;;;;;;;;5040621;28;20200;-69
2023/02/13 10:48:38;;;;;;;25.48;17.67;;;;;;;;;;5050350;28;20203;-69
2023/02/13 10:51:10;;;;;;;27.65;17.15;;;;;;;;;;5042792;28;20189;-68
2023/02/13 10:53:44;;;;;;;28.42;18.45;;;;;;;;;;5031978;28;20205;-68
2023/02/13 10:56:19;;;;;;;28.17;19.08;;;;;;;;;;5032371;28;20189;-68
2023/02/13 10:58:58;;;;;;;35.00;19.73;;;;;;;;;;5036328;28;20262;-67
2023/02/13 11:01:30;;;;;;;26.90;18.10;;;;;;;;;;5032847;28;20220;-67
2023/02/13 11:04:06;;;;;;;39.30;24.67;;;;;;;;;;5037520;28;20228;-68
2023/02/13 11:06:38;;;;;;;28.52;19.77;;;;;;;;;;5030298;28;20197;-67
2023/02/13 11:09:07;;;;;;;43.70;24.60;;;;;;;;;;5038525;28;20211;-68
2023/02/13 11:11:36;;;;;;;48.45;30.25;;;;;;;;;;5039621;28;20246;-68
2023/02/13 11:14:09;;;;;;;31.88;21.85;;;;;;;;;;5051433;28;20581;-68
2023/02/13 11:16:41;;;;;;;28.55;18.73;;;;;;;;;;5052436;28;20193;-68
2023/02/13 11:19:16;;;;;;;27.67;18.50;;;;;;;;;;5050707;28;20680;-66
2023/02/13 11:21:46;;;;;;;25.00;16.83;;;;;;;;;;5039778;28;20674;-68
2023/02/13 11:24:22;;;;;;;28.48;19.92;;;;;;;;;;5031067;28;20231;-67
2023/02/13 11:26:52;;;;;;;23.88;16.15;;;;;;;;;;5044701;28;20185;-67
2023/02/13 11:29:23;;;;;;;30.75;20.77;;;;;;;;;;5040925;28;20541;-67
2023/02/13 11:32:02;;;;;;;33.70;22.25;;;;;;;;;;5032115;28;20201;-67
2023/02/13 11:34:31;;;;;;;29.90;21.17;;;;;;;;;;5033084;28;20194;-67
2023/02/13 11:37:16;;;;;;;21.35;17.70;;;;;;;;;;5034449;28;20761;-68
2023/02/13 11:39:45;;;;;;;27.33;20.13;;;;;;;;;;5037910;28;20198;-69
2023/02/13 11:42:15;;;;;;;24.80;17.83;;;;;;;;;;5033455;28;20646;-67
2023/02/13 11:44:45;;;;;;;24.93;19.00;;;;;;;;;;5039413;28;20218;-68
2023/02/13 11:47:14;;;;;;;24.90;19.83;;;;;;;;;;5051887;28;20622;-68
2023/02/13 11:49:46;;;;;;;23.50;18.67;;;;;;;;;;5051813;28;20608;-68
2023/02/13 11:52:24;;;;;;;39.27;19.70;;;;;;;;;;5053020;28;20576;-67
2023/02/13 11:54:56;;;;;;;23.87;18.83;;;;;;;;;;5045506;28;20601;-67
2023/02/13 11:57:29;;;;;;;23.95;19.20;;;;;;;;;;5044712;28;21044;-67
2023/02/13 11:59:57;;;;;;;21.92;18.63;;;;;;;;;;5051147;28;20702;-67
2023/02/13 12:02:26;;;;;;;22.15;18.27;;;;;;;;;;5050256;28;20205;-68
2023/02/13 12:04:55;;;;;;;23.98;18.27;;;;;;;;;;5049883;28;20229;-68
2023/02/13 12:07:26;;;;;;;22.35;17.60;;;;;;;;;;5043551;28;20227;-69
2023/02/13 12:09:58;;;;;;;20.93;17.90;;;;;;;;;;5042760;28;20625;-67
2023/02/13 12:12:29;;;;;;;25.77;19.37;;;;;;;;;;5040650;28;20595;-68
2023/02/13 12:14:58;;;;;;;26.97;17.53;;;;;;;;;;5040488;28;20608;-67
2023/02/13 12:17:28;;;;;;;22.63;17.40;;;;;;;;;;5043028;28;20627;-67
2023/02/13 12:19:56;;;;;;;21.83;18.07;;;;;;;;;;5042514;28;20601;-67
2023/02/13 12:22:32;;;;;;;22.83;20.33;;;;;;;;;;5043520;28;21059;-66
2023/02/13 12:25:30;;;;;;;21.20;19.00;;;;;;;;;;5046246;28;20642;-67
2023/02/13 12:28:07;;;;;;;20.27;18.03;;;;;;;;;;5008269;28;20600;-67
2023/02/13 12:30:44;;;;;;;21.47;19.27;;;;;;;;;;5040029;28;20627;-66
2023/02/13 12:33:19;;;;;;;19.37;17.37;;;;;;;;;;5044405;28;20606;-67
2023/02/13 12:35:52;;;;;;;21.53;18.87;;;;;;;;;;5044627;28;20577;-67
2023/02/13 12:38:30;;;;;;;21.90;19.73;;;;;;;;;;5054995;28;20558;-67
2023/02/13 12:41:05;;;;;;;21.63;19.40;;;;;;;;;;5042127;28;20616;-68
2023/02/13 12:43:49;;;;;;;23.23;20.90;;;;;;;;;;5042757;28;20624;-67
2023/02/13 12:46:21;;;;;;;21.70;19.37;;;;;;;;;;5055507;28;20635;-68
2023/02/13 12:48:53;;;;;;;19.90;17.90;;;;;;;;;;5054955;28;21168;-67
2023/02/13 12:51:26;;;;;;;22.30;20.20;;;;;;;;;;5048235;28;20972;-67
2023/02/13 12:54:08;;;;;;;21.53;19.63;;;;;;;;;;5049114;28;20607;-69
2023/02/13 12:56:58;;;;;;;23.50;19.93;;;;;;;;;;5051253;28;20590;-68
2023/02/13 12:59:30;;;;;;;20.87;18.90;;;;;;;;;;5049540;28;20626;-69
2023/02/13 13:02:26;;;;;;;21.20;19.00;;;;;;;;;;5047947;28;20652;-69
2023/02/13 13:04:59;;;;;;;20.40;18.40;;;;;;;;;;5051184;28;20662;-69
2023/02/13 13:07:41;;;;;;;21.30;18.87;;;;;;;;;;5055364;28;20579;-68
2023/02/13 13:10:25;;;;;;;20.77;18.60;;;;;;;;;;5038081;28;20616;-68
2023/02/13 13:12:59;;;;;;;18.90;17.17;;;;;;;;;;5035119;28;21013;-68
2023/02/13 13:15:33;;;;;;;20.17;18.07;;;;;;;;;;5034898;28;20559;-70
2023/02/13 13:18:08;;;;;;;20.20;18.30;;;;;;;;;;5054829;28;20593;-69
2023/02/13 13:20:50;;;;;;;21.20;19.40;;;;;;;;;;5044612;28;20622;-69
2023/02/13 13:23:22;;;;;;;21.17;19.23;;;;;;;;;;5044215;28;21013;-68
2023/02/13 13:25:57;;;;;;;20.20;18.30;;;;;;;;;;5042913;28;20644;-68
2023/02/13 13:28:27;;;;;;;18.80;17.17;;;;;;;;;;5044273;28;20616;-69
2023/02/13 13:30:56;;;;;;;20.50;18.60;;;;;;;;;;5046692;28;20634;-69
2023/02/13 13:33:25;;;;;;;20.30;18.60;;;;;;;;;;5061513;28;20686;-69
2023/02/13 13:35:56;;;;;;;19.57;17.80;;;;;;;;;;5065902;28;20637;-70
2023/02/13 13:38:26;;;;;;;20.10;18.30;;;;;;;;;;5058456;28;20625;-70
2023/02/13 13:40:58;;;;;;;19.57;17.87;;;;;;;;;;5052428;28;20607;-70
2023/02/13 13:43:30;;;;;;;21.17;19.30;;;;;;;;;;5060832;28;20614;-69
2023/02/13 13:46:05;;;;;;;20.13;18.17;;;;;;;;;;5056407;28;21000;-69
2023/02/13 13:48:51;;;;;;;19.77;18.10;;;;;;;;;;5065195;28;20602;-67
2023/02/13 13:51:19;;;;;;;18.30;16.80;;;;;;;;;;5041043;28;20765;-68
2023/02/13 13:54:06;;;;;;;20.20;17.27;;;;;;;;;;5053079;28;20559;-68
2023/02/13 13:56:49;;;;;;;19.10;17.50;;;;;;;;;;5050768;28;20641;-65
2023/02/13 13:59:19;;;;;;;18.70;17.13;;;;;;;;;;5040916;28;20639;-67
2023/02/13 14:01:48;;;;;;;23.90;16.67;;;;;;;;;;5051203;28;20965;-67
2023/02/13 14:04:31;;;;;;;18.53;16.73;;;;;;;;;;5053001;28;20962;-67
2023/02/13 14:07:15;;;;;;;18.27;16.57;;;;;;;;;;5053704;28;20662;-68
2023/02/13 14:09:45;;;;;;;18.87;17.27;;;;;;;;;;5053765;28;20662;-69
2023/02/13 14:12:34;;;;;;;19.53;17.93;;;;;;;;;;5054241;28;20728;-69
2023/02/13 14:15:04;;;;;;;19.47;17.60;;;;;;;;;;5049230;28;20614;-69
2023/02/13 14:17:53;;;;;;;18.53;16.90;;;;;;;;;;5053637;28;21041;-69
2023/02/13 14:20:31;;;;;;;18.30;16.43;;;;;;;;;;5049131;28;21170;-69
2023/02/13 14:23:07;;;;;;;19.33;17.53;;;;;;;;;;5053066;28;20994;-69
2023/02/13 14:25:35;;;;;;;17.77;16.40;;;;;;;;;;5052080;28;20639;-69
2023/02/13 14:28:05;;;;;;;18.70;17.30;;;;;;;;;;5051792;28;20625;-69
2023/02/13 14:30:36;;;;;;;18.07;16.57;;;;;;;;;;5038147;28;20628;-69
2023/02/13 14:33:06;;;;;;;20.23;18.40;;;;;;;;;;5033922;28;20580;-69
2023/02/13 14:35:36;;;;;;;22.87;20.60;;;;;;;;;;5034260;28;20619;-69
2023/02/13 14:38:06;;;;;;;118.40;69.27;;;;;;;;;;5051930;28;20631;-68
2023/02/13 14:40:46;;;;;;;21.77;19.77;;;;;;;;;;5053411;28;20593;-69
2023/02/13 14:43:21;;;;;;;22.10;20.20;;;;;;;;;;5052099;28;20579;-70
2023/02/13 14:45:54;;;;;;;80.73;50.33;;;;;;;;;;5053392;28;21235;-67
2023/02/13 14:48:28;;;;;;;33.97;24.53;;;;;;;;;;5052803;28;21222;-67
2023/02/13 14:50:58;;;;;;;17.93;16.33;;;;;;;;;;5053012;28;20589;-67
2023/02/13 14:53:28;;;;;;;27.07;20.83;;;;;;;;;;5052506;28;20622;-67
2023/02/13 14:55:58;;;;;;;26.87;21.87;;;;;;;;;;5052851;28;20990;-67
2023/02/13 14:58:29;;;;;;;17.80;16.40;;;;;;;;;;5052383;28;20613;-66
2023/02/13 15:01:01;;;;;;;19.70;17.70;;;;;;;;;;5052977;28;20795;-66
2023/02/13 15:03:31;;;;;;;18.60;17.07;;;;;;;;;;5050303;28;21066;-65
2023/02/13 15:06:01;;;;;;;18.30;16.77;;;;;;;;;;5052640;28;20659;-67
2023/02/13 15:08:32;;;;;;;17.00;15.47;;;;;;;;;;5052265;28;20995;-67
2023/02/13 15:11:01;;;;;;;27.27;22.13;;;;;;;;;;5043553;28;20633;-66
2023/02/13 15:13:33;;;;;;;16.67;15.43;;;;;;;;;;5048407;28;20620;-68
2023/02/13 15:16:04;;;;;;;43.70;29.43;;;;;;;;;;5032876;28;20576;-68
2023/02/13 15:18:32;;;;;;;16.63;15.27;;;;;;;;;;5036916;28;20599;-67
2023/02/13 15:21:01;;;;;;;18.27;16.67;;;;;;;;;;5044607;28;20654;-67
2023/02/13 15:23:30;;;;;;;15.83;14.50;;;;;;;;;;5051100;28;20639;-69
2023/02/13 15:25:59;;;;;;;16.53;14.97;;;;;;;;;;5052164;28;20681;-69